Timeline UpdatesTrip UpdatesNews PostsPvt PostsTravel TipsAdmin PostsConv PostsFollowed PostsChat RequestsBlog PostsPNR Posts

Disclaimer
Search
 
 
Tue Sep 23, 2014 21:52:01 ISTHomeTrainsΣChainsAtlasPNRForumGalleryNewsFAQTripsMembersLoginFeedback
No Recent News for this Train
Other Trains in the News **new
Latest...
.
Wed Oct 10, 2012 (01:42PM)
⇐ Return Journey: Train# 59356

59355/Ratlam Mathura Passenger (UnReserved)

Time-Table HAS CHANGED.
Sep 04 (5:05PM)
Change Departure Station:
Change Arrival Station:
Post a Train Travel TipPost a Train Travel Tip **new
Post a Comment/Question/Picture/VideoPost a Comment/Question/Picture/Video
Pantry/Catering
✕ NO Pantry Car
✕ NO Catering
RSA - Rake Sharing
Rake/Coach Composition
Loco
WAM 4 (BRC)
News    PNR    Forum    Time-Table    Availability    Fare Chart    Map    Arr/Dep History    Trips    Gallery    ΣChains    X/O    Timeline    
Travel Time: 12h 59m    54 halts    Distance: 506 km    Avg Speed: 38 km/hr
Type: Passenger
Zone: WR/Western
Departs @ 07:00 (Avg 6m late)
Platform# 6
SMTWTFS
Ratlam Junction/RTM 
Arrives @ 19:59 (Avg 50m late)
Platform# ???
SMTWTFS
Dumariya/DY 

54 halts. 65 intermediate Stations between Ratlam Junction and Dumariya

Show ALL intermediate Stations  Show Old Time-Table

#CodeStation NameX/OArrivesAvgDepartsAvgHaltPFDay#KmSpeedElevZoneAddress
1RTMRatlam Junction (7)»  -07:00+6610.049495mWRRatlam, Madhya Pradesh
2BODBangrodX  07:12+1207:13+141m--19.855484mWRRatlam, Madhya Pradesh
3RNHRunkheraX  07:21+1607:22+171m--117.157478mWRUjjain, Madhya Pradesh
4KUHKhachrod (2)XO  07:33+1507:35+312m--127.616497mWRUjjain, Madhya Pradesh
5BRNABerawanyaO  07:56+1607:58+222m--133.312496mWRUjjain, Madhya Pradesh
6NADNagda Junction (4)X  08:40-108:45+35m--141.470468mWRNagda, Madhya Pradesh
7RLKRohal Khurd  08:54+1208:55+141m--151.944499mWCRNagda, Madhya Pradesh
8MEPMahidpur Road  09:04+1209:05+131m--158.571493mWCRGogapur, Madhya Pradesh
9LNRLuni RichhaO  09:14+1309:15+141m--169.188471mWCRAlote, Madhya Pradesh
10VMAVikramgarh Alot (2)XO  09:24+1509:25+171m2182.451443mWCRKota Division, Madhya Pradesh
11THURThuriaX  09:34+1809:35+241m--190.060430mWCRMDR 45, Madhya Pradesh
12TLZTalavli (2)  09:44+2509:45+251m--199.035442mWCRMDR 45, Madhya Pradesh
13CMUChau Mahla (3)X  09:54+2109:55+251m21104.265426mWCRJhalawar, Rajasthan
14NKHNathukheri  10:04+2510:05+251m--1113.938439mWCRMDR 45, Madhya Pradesh
15SVASuwasra (2)  10:14+2210:15+231m--1119.668450mWCRSuwasra, Madhya Pradesh
16HNUHanspuraXO  10:21+2610:22+261m--1126.333476mWCRMandsaur, Madhya Pradesh
17SGZShamgarh (3)O  10:34+1910:35+351m--1133.059463mWCRMandsaur, Madhya Pradesh
18GOHGaroth (2)  10:46+3910:47+411m21143.865441mWCRMadhya Pradesh 458880, Madhya Pradesh
19KRLSKurlas  10:56+4210:57+431m--1153.635417mWCRGarot, Madhya Pradesh
20BWMBhawani Mandi (3)  11:19+3111:20+411m--1166.567384mWCRBhawani Mandi, Madhya Pradesh
21DKRADhuankheriX  11:29+4211:30+441m--1176.642358mWCRBhawani Mandi, Madhya Pradesh
22JHWJhalawar Road (3)  11:39+4211:40+431m--1183.053361mWCRJhalawar City, Rajasthan
23RMARamganj Mandi Junction (3)X  11:54+3811:55+421m--1195.339358mWCRRamganj Mandi, Rajasthan
24MKXMorak (2)X  12:09+3812:10+401m--1204.439337mWCRMorak, Rajasthan
25KIWKanwalpura  12:19+3912:20+401m--1210.259324mWCRNH 12, Rajasthan
26DARADara  12:29+4012:30+411m--1219.155354mWCRDara, Rajasthan
27RDTRavtha Road  12:44+3812:45+391m--1231.951366mWCRNational Highway 12, Rajasthan
28ALNIAlniyaX  12:59+3813:00+431m--1243.846334mWCRNH 12, Rajasthan
29DDVDadhdeviXO  13:09+4313:10+481m--1250.629308mWCRNH 12, Rajasthan
30DKNTDakaniya Talav (2)X  13:24+4313:25+461m11257.312278mWCRKota, Rajasthan
31KOTAKota Junction (5)  14:15 14:10+1114:20+135 10m11266.636256mWCRKota, Rajasthan
32GQLGurla  14:29+2914:30+301m--1272.053251mWCRSH 33, Rajasthan
33KPTNKeshorai PatanXO  14:39+2914:40+331m--1280.073243mWCRSH 33, Rajasthan
34AREArnetha  14:49+3314:50+341m--1290.961239mWCRShreepura, Rajasthan
35KPZKaprenX  14:59+3415:00+371m--1300.167234mWCRKota - Lalsot Mega Highway, Rajasthan
36GKBGhataka VaranaXO  15:09+3715:10+401m--1310.162232mWCRSH 33, Rajasthan
37LBNLaban (2)O  15:19+4115:20+471m--1319.516225mWCRBundi, Rajasthan
38LKELakheri (3)  15:49+2815:50+321m--1327.060228mWCRBundi, Rajasthan
39IDGIndargarh Sumerganj Mandi (2)  16:01+3316:02+371m--1338.078247mWCRIndargarh, Rajasthan
40AMLIAmli  16:12+3716:13+381m--1351.165233mWCRSawai Madhopur, Rajasthan
41RWJRawania DungarX  16:20+4016:21 16:22+451 2m--1358.763266mWCRSawai Madhopur, Rajasthan
42KTAKushtalaXO  16:30+4516:31+461m--1367.222283mWCRNH 116, Rajasthan
43SWMSawai Madhopur Junction (4)X  16:59 16:50+2017:00 16:55+221 5m--1374.332266mWCRSawai Madhopur, Rajasthan
44RNTRanthambhore  17:09 17:14+3317:10 17:15+341m--1384.569248mWCRMDR 111, Rajasthan
45MXLMokholi  17:19 17:23+3217:20 17:24+331m--1393.765242mWCRMDR 111, Rajasthan
46MLZMalarnaX  17:29 17:34+3317:30 17:35+401m--1404.548236mWCRSawai Madhopur, Rajasthan
47NMDNomodaX  17:39 17:44+3917:40 17:45+401m--1411.664238mWCRMDR 111, Rajasthan
48NNWNarayanpur Tatwara (2)X  17:54+3917:55+391m--1421.371256mWCRSawai Madhopur, Rajasthan
49LRULalpur Umri  18:04+3918:05+401m--1431.915276mWCRSH 1, Rajasthan
50GGCGangapur City (3)X  18:30+1518:35+195m--1438.255270mWCRGangapur, Rajasthan
51COOChhoti Odai  18:49+3418:50+351m--1450.953257mWCRSH 25, Rajasthan
52PDZPiliodaX  18:59+3619:00+381m--1458.854247mWCRSH 1, Rajasthan
53SMBJShri Mahabirji (3)  19:15+3519:16+381m--1472.334240mWCRKarauli, Rajasthan
54HANHindaun City (2)X  19:34+2319:35+341m--1482.557230mWCRKarauli, Rajasthan
55FSPFateh SinghpuraX  19:49+4719:50+471m--1495.771223mWCRState Highway 1, Rajasthan
56DYDumariya (2)•X  19:59+5020:00+521m--1506.314211mWCRState Highway 1, Rajasthan
57BXNBayana Junction (3)  20:40+2620:50+3110m--1515.338198mWCRBayana, Rajasthan
58KEVKela Devi  21:09+2421:10+251m--1527.377193mWCRBharatpur, Rajasthan
59PNGRPingora  21:17+2921:18+301m--1536.362191mWCRSH 1, Rajasthan
60SWARSewarX  21:29+3021:30+301m--1547.620183mWCRBharatpur, Rajasthan
61BTEBharatpur Junction (5)  22:00+522:10+710m41557.355174mWCRBharatpur, Rajasthan
62DUMDhaurmui Jaghina  22:19+1322:20+171m--1565.640180mWCRState Highway 33, Rajasthan
63JJAJajan Patti  22:32+1422:33+141m--1573.642181mWCRState Highway 33, Rajasthan
64MSRPMurhesi Rampur (2)  22:40 22:45+1822:41 22:46+251m--1582.014182mWCRSH 33, Uttar Pradesh
65MTJMathura Junction (10)  23:25+0-51590.9-179mNCRMathura, Uttar Pradesh
Scroll to Top
Scroll to Bottom